createdAt,value
2023-05-24T00:00:36.205Z,26.97
2023-05-24T00:03:24.429Z,27.03
2023-05-24T00:05:52.936Z,27.13
2023-05-24T00:08:21.241Z,26.84
2023-05-24T00:10:49.917Z,26.75
2023-05-24T00:13:18.069Z,26.67
2023-05-24T00:15:46.345Z,26.33
2023-05-24T00:18:14.366Z,26.44
2023-05-24T00:20:43.063Z,26.14
2023-05-24T00:23:11.552Z,26.01
2023-05-24T00:25:39.931Z,26.08
2023-05-24T00:28:07.904Z,26.21
2023-05-24T00:30:36.530Z,26.34
2023-05-24T00:33:04.646Z,26.00
2023-05-24T00:35:32.984Z,26.21
2023-05-24T00:38:00.966Z,25.82
2023-05-24T00:40:29.333Z,25.88
2023-05-24T00:42:57.195Z,25.87
2023-05-24T00:45:25.631Z,25.84
2023-05-24T00:47:53.818Z,25.96
2023-05-24T00:50:22.706Z,25.96
2023-05-24T00:52:52.455Z,25.78
2023-05-24T00:55:21.111Z,25.84
2023-05-24T00:57:52.939Z,25.82
2023-05-24T01:00:21.295Z,26.05
2023-05-24T01:02:51.518Z,25.67
2023-05-24T01:05:20.485Z,26.08
2023-05-24T01:08:19.491Z,25.79
2023-05-24T01:10:58.182Z,25.42
2023-05-24T01:13:44.998Z,25.21
2023-05-24T01:16:27.750Z,24.84
2023-05-24T01:19:01.125Z,24.81
2023-05-24T01:21:29.342Z,24.52
2023-05-24T01:24:06.346Z,24.29
2023-05-24T01:26:47.273Z,24.16
2023-05-24T01:29:16.438Z,24.23
2023-05-24T01:31:45.357Z,24.13
2023-05-24T01:34:13.265Z,24.36
2023-05-24T01:36:41.534Z,24.55
2023-05-24T01:39:10.197Z,24.77
2023-05-24T01:41:56.832Z,24.94
2023-05-24T01:44:45.191Z,24.67
2023-05-24T01:47:30.827Z,24.88
2023-05-24T01:50:19.850Z,24.97
2023-05-24T01:52:51.937Z,25.19
2023-05-24T01:55:22.210Z,25.49
2023-05-24T01:57:51.925Z,25.14
2023-05-24T02:00:22.050Z,25.16
2023-05-24T02:02:51.092Z,24.96
2023-05-24T02:05:19.262Z,24.94
2023-05-24T02:07:47.759Z,24.13
2023-05-24T02:10:16.044Z,24.33
2023-05-24T02:12:44.387Z,24.37
2023-05-24T02:15:15.133Z,24.26
2023-05-24T02:17:44.171Z,24.41
2023-05-24T02:20:13.725Z,24.45
2023-05-24T02:22:42.095Z,24.20
2023-05-24T02:25:10.259Z,24.35
2023-05-24T02:27:38.790Z,24.29
2023-05-24T02:30:08.942Z,24.56
2023-05-24T02:32:37.385Z,24.41
2023-05-24T02:35:05.961Z,23.99
2023-05-24T02:37:34.210Z,24.11
2023-05-24T02:40:02.177Z,23.93
2023-05-24T02:42:30.580Z,23.58
2023-05-24T02:44:58.507Z,23.43
2023-05-24T02:47:29.789Z,23.10
2023-05-24T02:49:57.806Z,23.33
2023-05-24T02:52:27.070Z,23.24
2023-05-24T02:54:54.976Z,23.53
2023-05-24T02:57:23.318Z,22.71
2023-05-24T02:59:51.727Z,22.63
2023-05-24T03:02:22.326Z,22.35
2023-05-24T03:04:50.385Z,22.42
2023-05-24T03:07:18.777Z,22.59
2023-05-24T03:09:46.855Z,22.19
2023-05-24T03:12:15.215Z,21.94
2023-05-24T03:14:43.194Z,22.30
2023-05-24T03:17:11.895Z,22.48
2023-05-24T03:19:39.917Z,22.55
2023-05-24T03:22:08.499Z,22.59
2023-05-24T03:24:38.620Z,22.50
2023-05-24T03:27:07.197Z,22.49
2023-05-24T03:29:35.209Z,22.81
2023-05-24T03:32:05.258Z,22.54
2023-05-24T03:34:33.576Z,22.37
2023-05-24T03:37:02.000Z,21.94
2023-05-24T03:39:29.968Z,22.06
2023-05-24T03:42:16.088Z,22.47
2023-05-24T03:44:44.195Z,22.62
2023-05-24T03:47:12.830Z,22.14
2023-05-24T03:49:40.877Z,22.09
2023-05-24T03:52:09.683Z,22.06
2023-05-24T03:54:37.659Z,22.09
2023-05-24T03:57:07.247Z,21.54
2023-05-24T03:59:38.703Z,22.23
2023-05-24T04:02:08.723Z,22.59
2023-05-24T04:04:37.654Z,22.41
2023-05-24T04:07:06.022Z,22.66
2023-05-24T04:09:34.044Z,22.63
2023-05-24T04:12:02.384Z,23.10
2023-05-24T04:14:30.333Z,23.09
2023-05-24T04:16:59.002Z,23.25
2023-05-24T04:19:27.011Z,23.53
2023-05-24T04:21:55.472Z,23.13
2023-05-24T04:24:23.446Z,22.82
2023-05-24T04:26:51.981Z,23.04
2023-05-24T04:29:20.177Z,22.78
2023-05-24T04:31:49.467Z,23.26
2023-05-24T04:34:17.379Z,23.74
2023-05-24T04:36:46.094Z,23.04
2023-05-24T04:39:14.108Z,22.80
2023-05-24T04:41:42.284Z,22.34
2023-05-24T04:44:10.183Z,22.43
2023-05-24T04:46:38.480Z,22.66
2023-05-24T04:49:08.900Z,23.11
2023-05-24T04:51:38.991Z,23.20
2023-05-24T04:54:09.470Z,23.01
2023-05-24T04:56:38.977Z,23.23
2023-05-24T04:59:08.114Z,23.40
2023-05-24T05:01:36.882Z,22.81
2023-05-24T05:04:04.901Z,23.34
2023-05-24T05:06:35.191Z,23.11
2023-05-24T05:09:03.179Z,23.73
2023-05-24T05:11:31.858Z,23.41
2023-05-24T05:13:59.791Z,23.58
2023-05-24T05:16:28.328Z,23.94
2023-05-24T05:18:56.359Z,24.11
2023-05-24T05:21:24.792Z,24.18
2023-05-24T05:23:52.813Z,23.50
2023-05-24T05:26:21.866Z,24.01
2023-05-24T05:28:49.900Z,23.95
2023-05-24T05:31:18.286Z,23.91
2023-05-24T05:33:46.222Z,24.26
2023-05-24T05:36:14.534Z,24.61
2023-05-24T05:38:42.969Z,24.18
2023-05-24T05:41:11.702Z,23.87
2023-05-24T05:43:39.837Z,23.87
2023-05-24T05:46:08.504Z,24.16
2023-05-24T05:48:36.485Z,24.31
2023-05-24T05:51:04.832Z,24.33
2023-05-24T05:53:34.931Z,24.69
2023-05-24T05:56:03.325Z,24.90
2023-05-24T05:58:31.245Z,25.15
2023-05-24T06:00:59.561Z,25.24
2023-05-24T06:03:27.601Z,25.16
2023-05-24T06:05:56.084Z,26.13
2023-05-24T06:08:24.031Z,25.99
2023-05-24T06:10:53.074Z,26.71
2023-05-24T06:13:21.329Z,27.04
2023-05-24T06:15:50.270Z,26.97
2023-05-24T06:18:18.283Z,27.37
2023-05-24T06:20:47.338Z,27.54
2023-05-24T06:23:15.473Z,26.56
2023-05-24T06:25:44.210Z,25.05
2023-05-24T06:28:12.124Z,25.71
2023-05-24T06:30:41.048Z,25.93
2023-05-24T06:33:09.208Z,24.58
2023-05-24T06:35:37.556Z,25.47
2023-05-24T06:38:05.503Z,25.89
2023-05-24T06:40:33.734Z,25.00
2023-05-24T06:43:01.835Z,25.30
2023-05-24T06:45:30.155Z,25.07
2023-05-24T06:47:58.272Z,25.15
2023-05-24T06:50:26.686Z,25.43
2023-05-24T06:52:54.678Z,26.72
2023-05-24T06:55:23.217Z,26.99
2023-05-24T06:57:51.335Z,26.60
2023-05-24T07:00:19.895Z,26.26
2023-05-24T07:02:47.969Z,27.08
2023-05-24T07:05:16.373Z,27.73
2023-05-24T07:07:44.663Z,27.17
2023-05-24T07:10:13.204Z,26.75
2023-05-24T07:12:41.104Z,27.04
2023-05-24T07:15:10.116Z,27.03
2023-05-24T07:17:38.018Z,26.75
2023-05-24T07:20:11.080Z,28.03
2023-05-24T07:22:39.235Z,28.30
2023-05-24T07:25:08.388Z,28.73
2023-05-24T07:27:37.166Z,28.38
2023-05-24T07:30:09.539Z,27.38
2023-05-24T07:32:46.350Z,27.36
2023-05-24T07:35:14.678Z,27.11
2023-05-24T07:37:42.604Z,27.95
2023-05-24T07:40:12.556Z,28.24
2023-05-24T07:42:40.645Z,27.30
2023-05-24T07:45:10.791Z,27.03
2023-05-24T07:47:39.167Z,26.87
2023-05-24T07:50:07.835Z,26.54
2023-05-24T07:52:35.735Z,27.13
2023-05-24T07:55:04.816Z,27.21
2023-05-24T07:57:33.815Z,27.17
2023-05-24T08:00:10.649Z,28.01
2023-05-24T08:02:46.601Z,27.35
2023-05-24T08:05:17.195Z,27.36
2023-05-24T08:07:45.987Z,27.38
2023-05-24T08:10:14.342Z,26.81
2023-05-24T08:12:43.054Z,27.99
2023-05-24T08:15:12.084Z,28.39
2023-05-24T08:17:40.223Z,28.44
2023-05-24T08:20:14.887Z,28.45
2023-05-24T08:22:43.874Z,28.25
2023-05-24T08:25:12.435Z,28.89
2023-05-24T08:27:40.551Z,28.60
2023-05-24T08:30:09.693Z,27.85
2023-05-24T08:32:38.776Z,28.00
2023-05-24T08:35:20.440Z,28.53
2023-05-24T08:37:49.836Z,27.84
2023-05-24T08:40:18.547Z,27.99
2023-05-24T08:42:46.901Z,28.32
2023-05-24T08:45:16.263Z,28.43
2023-05-24T08:47:46.746Z,28.85
2023-05-24T08:50:15.564Z,29.23
2023-05-24T08:52:46.048Z,29.49
2023-05-24T08:55:15.949Z,28.69
2023-05-24T08:57:46.040Z,28.82
2023-05-24T09:00:14.998Z,28.26
2023-05-24T09:02:45.541Z,28.20
2023-05-24T09:05:17.361Z,28.48
2023-05-24T09:07:46.845Z,28.65
2023-05-24T09:10:15.926Z,28.91
2023-05-24T09:12:46.239Z,28.61
2023-05-24T09:15:14.856Z,28.50
2023-05-24T09:17:44.481Z,29.05
2023-05-24T09:20:13.589Z,29.02
2023-05-24T09:22:43.331Z,28.79
2023-05-24T09:25:15.245Z,28.81
2023-05-24T09:27:49.352Z,29.30
2023-05-24T09:30:17.724Z,29.51
2023-05-24T09:33:00.063Z,30.05
2023-05-24T09:35:28.632Z,29.99
2023-05-24T09:37:57.961Z,29.54
2023-05-24T09:40:27.482Z,29.78
2023-05-24T09:43:05.372Z,29.95
2023-05-24T09:45:33.876Z,30.03
2023-05-24T09:48:04.736Z,29.67
2023-05-24T09:50:33.274Z,29.87
2023-05-24T09:53:04.079Z,30.08
2023-05-24T09:55:37.064Z,29.66
2023-05-24T09:58:08.729Z,29.85
2023-05-24T10:00:41.369Z,30.07
2023-05-24T10:03:12.243Z,29.84
2023-05-24T10:05:45.039Z,30.14
2023-05-24T10:08:14.839Z,30.37
2023-05-24T10:10:44.758Z,29.85
2023-05-24T10:13:16.097Z,30.48
2023-05-24T10:15:45.472Z,30.16
2023-05-24T10:18:14.370Z,30.59
2023-05-24T10:20:44.568Z,31.25
2023-05-24T10:23:17.112Z,31.20
2023-05-24T10:26:00.707Z,31.07
2023-05-24T10:28:29.038Z,30.08
2023-05-24T10:31:11.391Z,30.65
2023-05-24T10:33:43.209Z,31.24
2023-05-24T10:36:14.472Z,31.11
2023-05-24T10:38:42.823Z,31.36
2023-05-24T10:41:30.868Z,30.44
2023-05-24T10:44:09.367Z,31.15
2023-05-24T10:47:10.424Z,31.53
2023-05-24T10:49:40.179Z,31.76
2023-05-24T10:52:10.172Z,31.70
2023-05-24T10:54:39.760Z,31.40
2023-05-24T10:57:11.256Z,31.94
2023-05-24T10:59:39.810Z,31.99
2023-05-24T11:02:16.696Z,31.92
2023-05-24T11:04:49.581Z,32.17
2023-05-24T11:07:19.514Z,31.79
2023-05-24T11:09:53.159Z,32.35
2023-05-24T11:12:21.717Z,31.88
2023-05-24T11:14:53.730Z,32.27
2023-05-24T11:17:23.915Z,31.35
2023-05-24T11:19:55.869Z,31.86
2023-05-24T11:22:25.972Z,31.10
2023-05-24T11:24:54.150Z,31.05
2023-05-24T11:27:23.249Z,31.16
2023-05-24T11:29:52.876Z,31.93
2023-05-24T11:32:22.518Z,32.13
2023-05-24T11:34:51.320Z,32.34
2023-05-24T11:37:26.261Z,32.90
2023-05-24T11:39:57.096Z,33.06
2023-05-24T11:42:25.597Z,33.14
2023-05-24T11:44:54.003Z,32.57
2023-05-24T11:47:25.217Z,33.13
2023-05-24T11:49:53.224Z,32.06
2023-05-24T11:52:22.405Z,32.27
2023-05-24T11:54:51.580Z,32.39
2023-05-24T11:57:27.116Z,32.02
2023-05-24T11:59:55.687Z,32.40
2023-05-24T12:02:24.521Z,32.52
2023-05-24T12:04:52.694Z,32.75
2023-05-24T12:07:24.054Z,31.46
2023-05-24T12:09:54.627Z,32.75
2023-05-24T12:12:30.711Z,33.02
2023-05-24T12:15:02.659Z,32.64
2023-05-24T12:17:31.150Z,32.61
2023-05-24T12:19:59.524Z,32.30
2023-05-24T12:22:31.990Z,32.32
2023-05-24T12:25:00.402Z,33.03
2023-05-24T12:27:31.642Z,33.04
2023-05-24T12:30:07.521Z,32.15
2023-05-24T12:32:36.363Z,32.33
2023-05-24T12:35:06.326Z,32.31
2023-05-24T12:37:34.830Z,31.40
2023-05-24T12:40:05.550Z,32.69
2023-05-24T12:42:34.141Z,33.30
2023-05-24T12:45:02.522Z,33.46
2023-05-24T12:47:31.162Z,32.98
2023-05-24T12:49:59.822Z,32.71
2023-05-24T12:52:28.816Z,32.30
2023-05-24T12:54:56.861Z,33.31
2023-05-24T12:57:25.442Z,33.32
2023-05-24T12:59:53.548Z,33.80
2023-05-24T13:02:22.855Z,33.96
2023-05-24T13:04:51.751Z,34.16
2023-05-24T13:07:20.316Z,33.47
2023-05-24T13:09:48.276Z,33.04
2023-05-24T13:12:16.736Z,32.86
2023-05-24T13:14:45.253Z,32.87
2023-05-24T13:17:16.440Z,33.56
2023-05-24T13:19:44.550Z,33.72
2023-05-24T13:22:13.339Z,33.39
2023-05-24T13:24:41.328Z,33.43
2023-05-24T13:27:10.427Z,32.96
2023-05-24T13:29:52.538Z,33.64
2023-05-24T13:32:23.412Z,34.17
2023-05-24T13:34:52.259Z,34.72
2023-05-24T13:37:20.856Z,33.92
2023-05-24T13:39:49.857Z,33.39
2023-05-24T13:42:18.479Z,33.50
2023-05-24T13:44:46.829Z,34.22
2023-05-24T13:47:31.173Z,33.68
2023-05-24T13:50:07.974Z,33.22
2023-05-24T13:52:37.236Z,32.60
2023-05-24T13:55:06.137Z,33.44
2023-05-24T13:57:49.579Z,33.56
2023-05-24T14:00:20.087Z,33.70
2023-05-24T14:02:52.117Z,34.28
2023-05-24T14:07:52.924Z,34.80
2023-05-24T14:10:21.900Z,34.57
2023-05-24T14:13:03.271Z,34.05
2023-05-24T14:15:33.517Z,33.70
2023-05-24T14:18:08.028Z,33.04
2023-05-24T14:20:38.468Z,33.58
2023-05-24T14:23:07.948Z,33.85
2023-05-24T14:25:36.343Z,33.36
2023-05-24T14:28:04.861Z,32.68
2023-05-24T14:30:32.887Z,33.46
2023-05-24T14:33:02.859Z,33.50
2023-05-24T14:35:34.047Z,33.88
2023-05-24T14:38:02.514Z,33.77
2023-05-24T14:40:30.752Z,34.20
2023-05-24T14:42:59.063Z,32.14
2023-05-24T14:45:27.457Z,33.87
2023-05-24T14:47:55.934Z,33.70
2023-05-24T14:50:24.848Z,33.88
2023-05-24T14:52:55.179Z,33.32
2023-05-24T14:55:24.010Z,32.44
2023-05-24T14:57:52.429Z,32.81
2023-05-24T15:00:25.040Z,33.66
2023-05-24T15:02:55.211Z,34.00
2023-05-24T15:05:23.427Z,33.81
2023-05-24T15:07:52.206Z,33.72
2023-05-24T15:10:20.389Z,34.22
2023-05-24T15:12:48.969Z,33.48
2023-05-24T15:15:17.333Z,33.05
2023-05-24T15:17:46.999Z,32.51
2023-05-24T15:20:15.177Z,31.98
2023-05-24T15:22:43.897Z,31.74
2023-05-24T15:25:12.057Z,31.97
2023-05-24T15:27:41.089Z,31.60
2023-05-24T15:30:09.350Z,31.36
2023-05-24T15:32:37.797Z,31.68
2023-05-24T15:35:07.985Z,31.31
2023-05-24T15:37:36.534Z,31.23
2023-05-24T15:40:05.535Z,31.60
2023-05-24T15:42:33.912Z,31.07
2023-05-24T15:45:02.075Z,30.71
2023-05-24T15:47:36.576Z,30.63
2023-05-24T15:50:06.533Z,31.03
2023-05-24T15:52:36.450Z,30.33
2023-05-24T15:55:06.651Z,30.47
2023-05-24T15:57:36.268Z,30.50
2023-05-24T16:00:04.557Z,30.45
2023-05-24T16:02:40.723Z,29.69
2023-05-24T16:05:09.278Z,29.94
2023-05-24T16:07:37.632Z,30.12
2023-05-24T16:10:08.009Z,29.56
2023-05-24T16:12:37.902Z,29.35
2023-05-24T16:15:08.332Z,29.40
2023-05-24T16:17:37.280Z,29.39
2023-05-24T16:20:06.548Z,29.14
2023-05-24T16:22:37.764Z,28.89
2023-05-24T16:25:06.519Z,29.19
2023-05-24T16:27:38.156Z,28.76
2023-05-24T16:30:08.315Z,28.57
2023-05-24T16:32:38.734Z,28.59
2023-05-24T16:35:07.748Z,28.58
2023-05-24T16:37:36.535Z,28.59
2023-05-24T16:40:05.429Z,28.53
2023-05-24T16:42:36.824Z,28.17
2023-05-24T16:45:05.779Z,28.57
2023-05-24T16:47:34.949Z,28.38
2023-05-24T16:50:04.336Z,28.61
2023-05-24T16:52:32.847Z,28.15
2023-05-24T16:55:02.242Z,28.01
2023-05-24T16:57:31.013Z,27.98
2023-05-24T16:59:59.573Z,27.68
2023-05-24T17:02:29.310Z,27.32
2023-05-24T17:04:58.265Z,27.32
2023-05-24T17:07:28.065Z,27.06
2023-05-24T17:09:56.342Z,27.05
2023-05-24T17:12:25.132Z,26.76
2023-05-24T17:14:53.383Z,27.19
2023-05-24T17:17:23.948Z,26.86
2023-05-24T17:19:52.350Z,26.96
2023-05-24T17:22:21.601Z,27.13
2023-05-24T17:24:50.178Z,26.77
2023-05-24T17:27:22.534Z,26.58
2023-05-24T17:29:51.093Z,26.23
2023-05-24T17:32:20.100Z,26.25
2023-05-24T17:34:48.322Z,26.34
2023-05-24T17:37:17.324Z,26.44
2023-05-24T17:39:45.680Z,26.23
2023-05-24T17:42:16.095Z,26.11
2023-05-24T17:44:44.525Z,26.25
2023-05-24T17:47:13.476Z,26.51
2023-05-24T17:49:42.713Z,26.02
2023-05-24T17:52:14.948Z,26.41
2023-05-24T17:54:43.529Z,26.49
2023-05-24T17:57:15.708Z,25.86
2023-05-24T17:59:43.983Z,25.80
2023-05-24T18:02:13.093Z,25.17
2023-05-24T18:04:41.628Z,25.02
2023-05-24T18:07:10.981Z,25.45
2023-05-24T18:09:39.848Z,25.00
2023-05-24T18:12:09.687Z,25.07
2023-05-24T18:14:38.674Z,25.26
2023-05-24T18:17:11.506Z,24.79
2023-05-24T18:19:42.499Z,24.89
2023-05-24T18:22:13.146Z,24.56
2023-05-24T18:24:41.885Z,24.67
2023-05-24T18:27:11.304Z,24.82
2023-05-24T18:29:39.935Z,24.18
2023-05-24T18:32:11.156Z,24.53
2023-05-24T18:34:39.579Z,24.32
2023-05-24T18:37:12.934Z,24.15
2023-05-24T18:39:42.630Z,24.34
2023-05-24T18:42:16.396Z,24.53
2023-05-24T18:44:47.263Z,24.51
2023-05-24T18:47:16.548Z,24.52
2023-05-24T18:49:46.353Z,24.63
2023-05-24T18:52:19.574Z,24.84
2023-05-24T18:54:47.790Z,25.01
2023-05-24T18:57:19.618Z,25.23
2023-05-24T18:59:48.950Z,25.21
2023-05-24T19:02:19.179Z,24.93
2023-05-24T19:04:49.170Z,25.01
2023-05-24T19:07:20.471Z,25.04
2023-05-24T19:09:49.359Z,25.23
2023-05-24T19:12:22.521Z,24.85
2023-05-24T19:14:51.158Z,25.02
2023-05-24T19:17:22.261Z,25.23
2023-05-24T19:19:51.956Z,24.91
2023-05-24T19:22:23.570Z,25.09
2023-05-24T19:24:52.281Z,24.85
2023-05-24T19:27:20.970Z,24.79
2023-05-24T19:29:49.828Z,24.97
2023-05-24T19:32:22.034Z,25.04
2023-05-24T19:34:52.662Z,24.73
2023-05-24T19:37:23.333Z,24.55
2023-05-24T19:39:57.161Z,24.47
2023-05-24T19:42:33.816Z,24.51
2023-05-24T19:45:04.133Z,24.54
2023-05-24T19:47:35.620Z,24.80
2023-05-24T19:50:07.209Z,24.79
2023-05-24T19:52:37.104Z,25.03
2023-05-24T19:55:08.489Z,25.15
2023-05-24T19:57:39.142Z,25.35
2023-05-24T20:00:07.964Z,25.35
2023-05-24T20:02:44.470Z,25.36
2023-05-24T20:05:17.533Z,25.22
2023-05-24T20:07:47.418Z,25.41
2023-05-24T21:04:46.902Z,26.11
2023-05-24T21:07:21.898Z,26.00
2023-05-24T21:09:52.918Z,25.93
2023-05-24T21:12:26.848Z,26.10
2023-05-24T21:14:56.211Z,26.11
2023-05-24T21:17:25.029Z,26.35
2023-05-24T21:19:53.992Z,26.26
2023-05-24T21:22:24.610Z,26.27
2023-05-24T21:24:53.019Z,26.39
2023-05-24T21:27:23.217Z,26.46
2023-05-24T21:29:53.870Z,26.50
2023-05-24T21:32:22.359Z,26.40
2023-05-24T21:34:51.533Z,26.28
2023-05-24T21:37:20.059Z,26.24
2023-05-24T21:39:48.251Z,26.25
2023-05-24T21:42:16.623Z,26.24
2023-05-24T21:44:44.711Z,26.34
2023-05-24T21:47:13.322Z,26.14
2023-05-24T21:49:41.402Z,26.15
2023-05-24T21:52:09.824Z,26.09
2023-05-24T21:54:37.953Z,25.96
2023-05-24T21:57:07.462Z,26.06
2023-05-24T21:59:35.532Z,25.98
2023-05-24T22:02:04.060Z,25.94
2023-05-24T22:04:32.055Z,25.82
2023-05-24T22:07:00.683Z,25.72
2023-05-24T22:09:28.633Z,25.85
2023-05-24T22:11:57.256Z,25.90
2023-05-24T22:14:27.317Z,25.73
2023-05-24T22:16:59.334Z,25.57
2023-05-24T22:19:39.852Z,25.54
2023-05-24T22:22:10.110Z,25.86
2023-05-24T22:24:38.075Z,25.70
2023-05-24T22:27:09.840Z,25.73
2023-05-24T22:29:37.855Z,25.66
2023-05-24T22:32:06.922Z,25.79
2023-05-24T22:34:35.138Z,25.73
2023-05-24T22:37:03.412Z,25.66
2023-05-24T22:39:31.549Z,25.68
2023-05-24T22:42:00.081Z,25.58
2023-05-24T22:44:27.928Z,25.60
2023-05-24T22:46:56.670Z,25.53
2023-05-24T22:49:24.879Z,25.28
2023-05-24T22:51:55.591Z,25.50
2023-05-24T22:54:23.515Z,25.39
2023-05-24T22:56:51.886Z,25.34
2023-05-24T22:59:19.881Z,25.38
2023-05-24T23:01:48.291Z,25.36
2023-05-24T23:06:47.705Z,25.37
2023-05-24T23:09:15.725Z,25.33
2023-05-24T23:11:44.684Z,25.47
2023-05-24T23:14:12.619Z,25.40
2023-05-24T23:16:46.137Z,25.22
2023-05-24T23:19:19.437Z,25.02
2023-05-24T23:21:48.177Z,25.21
2023-05-24T23:24:16.359Z,25.09
2023-05-24T23:26:44.738Z,25.23
2023-05-24T23:29:12.746Z,25.57
2023-05-24T23:31:41.391Z,25.19
2023-05-24T23:34:09.606Z,25.42
2023-05-24T23:36:38.209Z,25.00
2023-05-24T23:39:06.384Z,24.88
2023-05-24T23:41:35.051Z,25.22
2023-05-24T23:44:03.029Z,25.21
2023-05-24T23:46:31.407Z,25.25
2023-05-24T23:49:00.378Z,25.35
2023-05-24T23:56:04.066Z,25.46
2023-05-24T23:58:32.280Z,25.62
